createdAt,value
2022-10-11T00:00:19.051Z,7.23
2022-10-11T00:02:46.160Z,7.21
2022-10-11T00:05:13.261Z,7.20
2022-10-11T00:07:40.511Z,7.18
2022-10-11T00:10:09.448Z,7.14
2022-10-11T00:12:37.005Z,7.13
2022-10-11T00:15:06.947Z,7.13
2022-10-11T00:17:35.405Z,7.12
2022-10-11T00:20:02.404Z,7.10
2022-10-11T00:22:29.479Z,7.10
2022-10-11T00:24:58.661Z,7.08
2022-10-11T00:27:27.486Z,7.08
2022-10-11T00:29:54.716Z,7.06
2022-10-11T00:32:21.867Z,7.04
2022-10-11T00:34:49.023Z,7.02
2022-10-11T00:37:16.139Z,6.98
2022-10-11T00:39:43.252Z,6.97
2022-10-11T00:42:15.671Z,6.99
2022-10-11T00:44:50.927Z,7.02
2022-10-11T00:47:23.081Z,7.04
2022-10-11T00:49:59.186Z,7.03
2022-10-11T00:52:37.462Z,6.98
2022-10-11T00:55:18.481Z,6.98
2022-10-11T00:57:49.532Z,6.97
2022-10-11T01:00:17.191Z,6.96
2022-10-11T01:02:44.454Z,6.96
2022-10-11T01:05:29.165Z,6.93
2022-10-11T01:08:00.306Z,6.89
2022-10-11T01:10:29.432Z,6.85
2022-10-11T01:13:32.931Z,6.82
2022-10-11T01:16:34.048Z,6.78
2022-10-11T01:19:38.621Z,6.73
2022-10-11T01:22:20.834Z,6.67
2022-10-11T01:25:37.650Z,6.63
2022-10-11T01:28:49.085Z,6.57
2022-10-11T01:31:39.660Z,6.49
2022-10-11T01:34:13.929Z,6.47
2022-10-11T01:36:56.802Z,6.42
2022-10-11T01:39:38.055Z,6.43
2022-10-11T01:42:10.876Z,6.42
2022-10-11T01:44:41.422Z,6.42
2022-10-11T01:47:08.545Z,6.41
2022-10-11T01:49:35.632Z,6.38
2022-10-11T01:52:07.130Z,6.35
2022-10-11T01:55:23.176Z,6.30
2022-10-11T01:58:40.771Z,6.26
2022-10-11T02:01:51.113Z,6.20
2022-10-11T02:04:49.447Z,6.14
2022-10-11T02:07:24.515Z,6.11
2022-10-11T02:10:03.937Z,6.05
2022-10-11T02:12:51.654Z,5.99
2022-10-11T02:15:23.352Z,5.96
2022-10-11T02:17:57.332Z,5.91
2022-10-11T02:20:30.839Z,5.87
2022-10-11T02:23:10.693Z,5.86
2022-10-11T02:25:39.607Z,5.80
2022-10-11T02:28:17.335Z,5.76
2022-10-11T02:30:49.846Z,5.72
2022-10-11T02:33:27.364Z,5.69
2022-10-11T02:36:05.099Z,5.66
2022-10-11T02:38:46.002Z,5.62
2022-10-11T02:41:25.060Z,5.59
2022-10-11T02:44:00.512Z,5.56
2022-10-11T02:46:30.579Z,5.52
2022-10-11T02:49:01.945Z,5.49
2022-10-11T02:51:33.584Z,5.46
2022-10-11T02:54:06.783Z,5.44
2022-10-11T02:56:33.825Z,5.42
2022-10-11T02:59:00.860Z,5.41
2022-10-11T03:01:27.966Z,5.40
2022-10-11T03:03:55.200Z,5.37
2022-10-11T03:06:22.213Z,5.36
2022-10-11T03:08:49.362Z,5.38
2022-10-11T03:11:16.346Z,5.40
2022-10-11T03:13:43.307Z,5.42
2022-10-11T03:16:10.716Z,5.42
2022-10-11T03:18:37.825Z,5.43
2022-10-11T03:21:05.011Z,5.45
2022-10-11T03:23:32.321Z,5.44
2022-10-11T03:25:59.267Z,5.43
2022-10-11T03:28:26.402Z,5.42
2022-10-11T03:30:53.613Z,5.39
2022-10-11T03:33:21.740Z,5.36
2022-10-11T03:35:49.752Z,5.33
2022-10-11T03:38:22.505Z,5.34
2022-10-11T03:40:49.851Z,5.32
2022-10-11T03:43:17.706Z,5.31
2022-10-11T03:45:44.825Z,5.30
2022-10-11T03:48:12.872Z,5.27
2022-10-11T03:50:40.005Z,5.23
2022-10-11T03:53:07.707Z,5.20
2022-10-11T03:55:35.142Z,5.15
2022-10-11T03:58:02.263Z,5.12
2022-10-11T04:00:29.291Z,5.09
2022-10-11T04:02:56.407Z,5.05
2022-10-11T04:05:23.411Z,5.01
2022-10-11T04:07:51.159Z,4.95
2022-10-11T04:10:18.378Z,4.90
2022-10-11T04:12:46.123Z,4.82
2022-10-11T04:15:13.452Z,4.76
2022-10-11T04:17:41.230Z,4.72
2022-10-11T04:20:09.490Z,4.68
2022-10-11T04:22:36.680Z,4.62
2022-10-11T04:25:04.751Z,4.56
2022-10-11T04:27:32.775Z,4.51
2022-10-11T04:29:59.928Z,4.46
2022-10-11T04:32:27.835Z,4.43
2022-10-11T04:34:54.895Z,4.41
2022-10-11T04:37:22.134Z,4.40
2022-10-11T04:39:49.108Z,4.38
2022-10-11T04:42:16.446Z,4.39
2022-10-11T04:44:43.512Z,4.38
2022-10-11T04:47:10.626Z,4.39
2022-10-11T04:49:38.740Z,4.38
2022-10-11T04:52:06.001Z,4.37
2022-10-11T04:54:33.181Z,4.34
2022-10-11T04:57:00.431Z,4.29
2022-10-11T04:59:28.270Z,4.27
2022-10-11T05:01:55.350Z,4.25
2022-10-11T05:04:22.625Z,4.22
2022-10-11T05:06:49.659Z,4.22
2022-10-11T05:09:16.744Z,4.20
2022-10-11T05:11:43.816Z,4.18
2022-10-11T05:14:10.861Z,4.16
2022-10-11T05:16:38.074Z,4.16
2022-10-11T05:19:05.035Z,4.16
2022-10-11T05:21:32.457Z,4.15
2022-10-11T05:23:59.574Z,4.15
2022-10-11T05:26:28.321Z,4.12
2022-10-11T05:28:56.000Z,4.11
2022-10-11T05:31:24.838Z,4.10
2022-10-11T05:33:52.144Z,4.07
2022-10-11T05:36:19.520Z,4.04
2022-10-11T05:38:46.871Z,4.00
2022-10-11T05:41:15.493Z,3.96
2022-10-11T05:43:47.079Z,3.92
2022-10-11T05:46:14.429Z,3.88
2022-10-11T05:48:41.685Z,3.84
2022-10-11T05:51:10.466Z,3.83
2022-10-11T05:53:39.356Z,3.80
2022-10-11T05:56:19.967Z,3.79
2022-10-11T05:58:47.391Z,3.76
2022-10-11T06:01:23.669Z,3.76
2022-10-11T06:03:51.511Z,3.70
2022-10-11T06:06:19.613Z,3.68
2022-10-11T06:08:48.845Z,3.70
2022-10-11T06:11:23.451Z,3.69
2022-10-11T06:13:50.434Z,3.67
2022-10-11T06:16:17.423Z,3.70
2022-10-11T06:18:44.451Z,3.71
2022-10-11T06:21:13.100Z,3.74
2022-10-11T06:23:40.063Z,3.77
2022-10-11T06:26:10.359Z,3.81
2022-10-11T06:28:38.170Z,3.83
2022-10-11T06:31:06.146Z,3.87
2022-10-11T06:33:34.572Z,3.89
2022-10-11T06:36:07.659Z,3.92
2022-10-11T06:38:35.160Z,3.96
2022-10-11T06:41:17.259Z,4.01
2022-10-11T06:43:45.224Z,4.06
2022-10-11T06:46:12.977Z,4.12
2022-10-11T06:48:43.511Z,4.20
2022-10-11T06:51:15.104Z,4.27
2022-10-11T06:53:43.057Z,4.36
2022-10-11T06:56:12.896Z,4.45
2022-10-11T06:58:40.393Z,4.57
2022-10-11T07:01:12.381Z,4.68
2022-10-11T07:03:40.519Z,4.79
2022-10-11T07:06:11.912Z,4.93
2022-10-11T07:08:39.886Z,5.09
2022-10-11T07:11:17.220Z,5.30
2022-10-11T07:13:50.911Z,5.46
2022-10-11T07:16:18.496Z,5.67
2022-10-11T07:18:54.785Z,5.85
2022-10-11T07:21:24.762Z,6.09
2022-10-11T07:23:51.936Z,6.30
2022-10-11T07:26:38.618Z,6.53
2022-10-11T07:29:09.403Z,6.75
2022-10-11T07:31:40.300Z,6.98
2022-10-11T07:34:08.280Z,7.23
2022-10-11T07:36:36.059Z,7.47
2022-10-11T07:39:06.984Z,7.73
2022-10-11T07:41:34.150Z,7.96
2022-10-11T07:44:01.167Z,8.14
2022-10-11T07:46:28.139Z,8.31
2022-10-11T07:48:55.229Z,8.45
2022-10-11T07:51:24.546Z,8.58
2022-10-11T07:53:55.902Z,8.69
2022-10-11T07:56:27.646Z,8.82
2022-10-11T07:58:58.895Z,8.94
2022-10-11T08:01:27.831Z,9.07
2022-10-11T08:03:57.183Z,9.17
2022-10-11T08:06:29.317Z,9.25
2022-10-11T08:08:57.907Z,9.34
2022-10-11T08:11:29.989Z,9.40
2022-10-11T08:14:08.799Z,9.52
2022-10-11T08:16:37.405Z,9.57
2022-10-11T08:19:05.872Z,9.65
2022-10-11T08:21:33.401Z,9.74
2022-10-11T08:24:04.282Z,9.85
2022-10-11T08:26:33.352Z,9.97
2022-10-11T08:31:34.812Z,10.13
2022-10-11T08:34:02.726Z,10.27
2022-10-11T08:36:29.914Z,10.39
2022-10-11T08:41:54.341Z,10.62
2022-10-11T08:45:10.595Z,10.64
2022-10-11T08:47:44.172Z,10.65
2022-10-11T08:50:23.713Z,10.71
2022-10-11T08:53:06.060Z,10.76
2022-10-11T08:55:48.054Z,10.81
2022-10-11T08:58:37.418Z,10.91
2022-10-11T09:01:18.783Z,11.02
2022-10-11T09:03:48.543Z,11.13
2022-10-11T09:06:50.254Z,11.27
2022-10-11T09:10:01.919Z,11.36
2022-10-11T09:13:05.939Z,11.48
2022-10-11T09:15:48.934Z,11.64
2022-10-11T09:18:31.510Z,11.73
2022-10-11T09:21:40.070Z,11.88
2022-10-11T09:24:34.562Z,12.01
2022-10-11T09:27:19.132Z,12.15
2022-10-11T09:30:06.187Z,12.27
2022-10-11T09:32:42.497Z,12.37
2022-10-11T09:35:22.372Z,12.43
2022-10-11T09:38:26.316Z,12.46
2022-10-11T09:41:25.363Z,12.50
2022-10-11T09:43:54.380Z,12.54
2022-10-11T09:46:40.055Z,12.56
2022-10-11T09:49:15.869Z,12.65
2022-10-11T09:51:51.643Z,12.73
2022-10-11T09:54:22.264Z,12.86
2022-10-11T09:56:49.343Z,12.99
2022-10-11T09:59:30.069Z,13.12
2022-10-11T10:02:27.423Z,13.28
2022-10-11T10:05:10.791Z,13.41
2022-10-11T10:07:41.166Z,13.49
2022-10-11T10:11:01.991Z,13.64
2022-10-11T10:13:56.068Z,13.76
2022-10-11T10:16:33.973Z,13.88
2022-10-11T10:19:05.075Z,13.98
2022-10-11T10:21:37.557Z,14.03
2022-10-11T10:24:17.661Z,14.12
2022-10-11T10:27:18.447Z,14.22
2022-10-11T10:30:00.869Z,14.34
2022-10-11T10:32:43.875Z,14.43
2022-10-11T10:35:48.761Z,14.53
2022-10-11T10:38:32.642Z,14.62
2022-10-11T10:41:09.117Z,14.68
2022-10-11T10:43:42.888Z,14.75
2022-10-11T10:46:16.016Z,14.85
2022-10-11T10:49:28.765Z,14.95
2022-10-11T10:52:16.044Z,15.04
2022-10-11T10:54:55.291Z,15.10
2022-10-11T10:58:18.611Z,15.20
2022-10-11T11:00:56.048Z,15.28
2022-10-11T11:03:47.885Z,15.35
2022-10-11T11:06:51.324Z,15.45
2022-10-11T11:09:55.000Z,15.55
2022-10-11T11:12:31.580Z,15.62
2022-10-11T11:15:31.245Z,15.72
2022-10-11T11:18:29.067Z,15.79
2022-10-11T11:22:02.015Z,15.91
2022-10-11T11:24:43.939Z,15.95
2022-10-11T11:27:39.980Z,16.00
2022-10-11T11:30:41.251Z,16.08
2022-10-11T11:33:49.063Z,16.15
2022-10-11T11:36:34.204Z,16.26
2022-10-11T11:39:05.063Z,16.31
2022-10-11T11:41:47.707Z,16.39
2022-10-11T11:44:42.676Z,16.56
2022-10-11T11:47:32.447Z,16.77
2022-10-11T11:50:25.268Z,17.04
2022-10-11T11:53:21.147Z,17.19
2022-10-11T11:56:04.296Z,17.18
2022-10-11T11:58:45.196Z,16.90
2022-10-11T12:01:31.487Z,16.63
2022-10-11T12:04:12.714Z,16.27
2022-10-11T12:06:52.383Z,15.97
2022-10-11T12:09:25.792Z,15.89
2022-10-11T12:11:58.603Z,15.90
2022-10-11T12:14:34.168Z,15.93
2022-10-11T12:17:18.755Z,16.17
2022-10-11T12:20:06.635Z,16.32
2022-10-11T12:22:33.404Z,16.53
2022-10-11T12:25:18.361Z,16.74
2022-10-11T12:27:52.942Z,17.00
2022-10-11T12:30:44.597Z,17.19
2022-10-11T12:33:25.824Z,17.35
2022-10-11T12:35:53.743Z,17.47
2022-10-11T12:38:35.564Z,17.64
2022-10-11T12:41:16.746Z,17.81
2022-10-11T12:43:49.343Z,17.98
2022-10-11T12:46:28.478Z,18.08
2022-10-11T12:49:31.185Z,18.23
2022-10-11T12:52:34.082Z,18.30
2022-10-11T12:56:01.963Z,18.43
2022-10-11T12:58:41.469Z,18.50
2022-10-11T13:01:22.098Z,18.61
2022-10-11T13:04:00.722Z,18.65
2022-10-11T13:06:48.764Z,18.73
2022-10-11T13:09:29.727Z,18.66
2022-10-11T13:12:20.738Z,18.51
2022-10-11T13:15:05.298Z,18.33
2022-10-11T13:17:38.819Z,17.87
2022-10-11T13:20:20.357Z,17.43
2022-10-11T13:22:55.140Z,17.19
2022-10-11T13:25:27.876Z,17.08
2022-10-11T13:27:59.458Z,17.09
2022-10-11T13:30:31.639Z,17.12
2022-10-11T13:33:13.177Z,17.11
2022-10-11T13:35:41.299Z,17.06
2022-10-11T13:38:23.874Z,17.09
2022-10-11T13:40:51.820Z,17.03
2022-10-11T13:43:37.946Z,17.06
2022-10-11T13:46:05.839Z,17.06
2022-10-11T13:48:40.163Z,17.13
2022-10-11T13:51:39.398Z,17.08
2022-10-11T13:54:13.425Z,17.11
2022-10-11T13:56:52.574Z,17.27
2022-10-11T13:59:23.888Z,17.37
2022-10-11T14:02:00.607Z,17.14
2022-10-11T14:04:29.930Z,16.87
2022-10-11T14:07:02.469Z,16.73
2022-10-11T14:09:36.574Z,16.64
2022-10-11T14:12:39.632Z,16.72
2022-10-11T14:15:34.578Z,16.70
2022-10-11T14:18:33.577Z,16.55
2022-10-11T14:21:19.311Z,16.35
2022-10-11T14:23:50.719Z,16.22
2022-10-11T14:26:19.355Z,16.08
2022-10-11T14:28:54.160Z,15.96
2022-10-11T14:31:22.919Z,15.80
2022-10-11T14:33:50.161Z,15.68
2022-10-11T14:36:17.303Z,15.58
2022-10-11T14:38:46.311Z,15.42
2022-10-11T14:41:13.370Z,15.29
2022-10-11T14:43:40.441Z,15.18
2022-10-11T14:46:22.304Z,15.11
2022-10-11T14:48:55.600Z,15.04
2022-10-11T14:51:32.205Z,15.00
2022-10-11T14:53:59.480Z,14.95
2022-10-11T14:56:26.587Z,14.88
2022-10-11T14:58:53.562Z,14.84
2022-10-11T15:01:20.860Z,14.86
2022-10-11T15:03:48.087Z,15.03
2022-10-11T15:06:30.508Z,15.20
2022-10-11T15:08:58.644Z,15.35
2022-10-11T15:11:26.431Z,15.50
2022-10-11T15:13:53.478Z,15.51
2022-10-11T15:16:22.550Z,15.46
2022-10-11T15:18:52.982Z,15.35
2022-10-11T15:21:25.508Z,15.27
2022-10-11T15:23:54.623Z,15.15
2022-10-11T15:26:25.941Z,15.07
2022-10-11T15:28:56.124Z,14.97
2022-10-11T15:31:23.767Z,14.86
2022-10-11T15:33:51.040Z,14.72
2022-10-11T15:36:22.645Z,14.63
2022-10-11T15:38:49.798Z,14.52
2022-10-11T15:41:20.045Z,14.43
2022-10-11T15:43:48.930Z,14.38
2022-10-11T15:46:19.921Z,14.30
2022-10-11T15:48:49.256Z,14.24
2022-10-11T15:51:17.174Z,14.16
2022-10-11T15:53:44.883Z,14.07
2022-10-11T15:56:18.686Z,13.97
2022-10-11T15:58:46.210Z,13.87
2022-10-11T16:01:19.933Z,13.79
2022-10-11T16:03:49.467Z,13.71
2022-10-11T16:06:19.173Z,13.61
2022-10-11T16:08:47.400Z,13.52
2022-10-11T16:11:14.934Z,13.40
2022-10-11T16:13:42.043Z,13.30
2022-10-11T16:16:10.327Z,13.16
2022-10-11T16:18:38.830Z,13.04
2022-10-11T16:21:11.313Z,12.94
2022-10-11T16:23:39.981Z,12.81
2022-10-11T16:26:13.693Z,12.69
2022-10-11T16:28:41.957Z,12.57
2022-10-11T16:31:14.272Z,12.45
2022-10-11T16:33:47.746Z,12.35
2022-10-11T16:36:40.165Z,12.23
2022-10-11T16:39:14.715Z,12.10
2022-10-11T16:41:42.716Z,12.01
2022-10-11T16:44:19.147Z,11.89
2022-10-11T16:46:48.535Z,11.77
2022-10-11T16:49:19.890Z,11.68
2022-10-11T16:51:47.236Z,11.57
2022-10-11T16:54:22.955Z,11.45
2022-10-11T16:56:51.611Z,11.34
2022-10-11T16:59:20.238Z,11.26
2022-10-11T17:01:47.866Z,11.17
2022-10-11T17:04:15.306Z,11.07
2022-10-11T17:06:43.968Z,10.97
2022-10-11T17:09:11.859Z,10.86
2022-10-11T17:11:39.334Z,10.77
2022-10-11T17:14:07.206Z,10.66
2022-10-11T17:16:36.280Z,10.55
2022-10-11T17:19:04.092Z,10.46
2022-10-11T17:21:31.755Z,10.39
2022-10-11T17:24:00.783Z,10.30
2022-10-11T17:26:27.959Z,10.22
2022-10-11T17:29:00.527Z,10.15
2022-10-11T17:31:29.992Z,10.09
2022-10-11T17:34:01.222Z,10.06
2022-10-11T17:36:35.938Z,10.00
2022-10-11T17:39:10.060Z,9.91
2022-10-11T17:41:37.430Z,9.84
2022-10-11T17:44:05.404Z,9.77
2022-10-11T17:46:32.841Z,9.70
2022-10-11T17:49:04.730Z,9.65
2022-10-11T17:51:34.483Z,9.57
2022-10-11T17:54:02.187Z,9.50
2022-10-11T17:56:35.076Z,9.43
2022-10-11T17:59:03.732Z,9.37
2022-10-11T18:01:30.917Z,9.30
2022-10-11T18:04:03.109Z,9.24
2022-10-11T18:06:39.561Z,9.20
2022-10-11T18:09:07.411Z,9.14
2022-10-11T18:11:34.438Z,9.08
2022-10-11T18:14:01.590Z,9.05
2022-10-11T18:16:31.527Z,8.99
2022-10-11T18:18:59.109Z,8.94
2022-10-11T18:21:33.399Z,8.88
2022-10-11T18:24:12.114Z,8.83
2022-10-11T18:26:46.513Z,8.77
2022-10-11T18:29:13.891Z,8.72
2022-10-11T18:31:41.390Z,8.69
2022-10-11T18:34:10.881Z,8.66
2022-10-11T18:36:39.896Z,8.62
2022-10-11T18:39:11.354Z,8.56
2022-10-11T18:41:42.060Z,8.51
2022-10-11T18:44:13.968Z,8.45
2022-10-11T18:46:42.607Z,8.41
2022-10-11T18:49:10.204Z,8.37
2022-10-11T18:51:42.286Z,8.32
2022-10-11T18:54:15.227Z,8.25
2022-10-11T18:56:45.719Z,8.21
2022-10-11T18:59:13.143Z,8.16
2022-10-11T19:01:44.788Z,8.15
2022-10-11T19:04:16.073Z,8.07
2022-10-11T19:06:49.627Z,8.04
2022-10-11T19:09:25.693Z,7.99
2022-10-11T19:11:56.145Z,7.95
2022-10-11T19:14:28.287Z,7.92
2022-10-11T19:16:56.177Z,7.87
2022-10-11T19:19:27.606Z,7.84
2022-10-11T19:21:55.178Z,7.80
2022-10-11T19:24:27.307Z,7.77
2022-10-11T19:26:58.521Z,7.73
2022-10-11T19:29:28.846Z,7.69
2022-10-11T19:32:00.719Z,7.65
2022-10-11T19:34:28.498Z,7.59
2022-10-11T19:36:58.904Z,7.57
2022-10-11T19:39:26.203Z,7.54
2022-10-11T19:41:53.801Z,7.50
2022-10-11T19:44:20.945Z,7.47
2022-10-11T19:46:52.438Z,7.43
2022-10-11T19:49:25.853Z,7.40
2022-10-11T19:51:55.084Z,7.36
2022-10-11T19:54:22.883Z,7.33
2022-10-11T19:56:50.027Z,7.30
2022-10-11T19:59:17.401Z,7.28
2022-10-11T20:01:49.376Z,7.26
2022-10-11T20:04:50.953Z,7.22
2022-10-11T20:07:08.682Z,7.18
2022-10-11T20:09:36.810Z,7.15
2022-10-11T20:12:03.994Z,7.11
2022-10-11T20:14:30.990Z,7.06
2022-10-11T20:16:58.144Z,7.02
2022-10-11T20:19:30.671Z,6.98
2022-10-11T20:22:00.828Z,6.94
2022-10-11T20:24:32.693Z,6.93
2022-10-11T20:27:04.072Z,6.91
2022-10-11T20:29:33.282Z,6.86
2022-10-11T20:32:00.530Z,6.82
2022-10-11T20:34:27.885Z,6.79
2022-10-11T20:36:54.883Z,6.78
2022-10-11T20:39:22.029Z,6.76
2022-10-11T20:41:49.086Z,6.72
2022-10-11T20:44:16.712Z,6.66
2022-10-11T20:46:43.698Z,6.63
2022-10-11T20:49:12.487Z,6.61
2022-10-11T20:51:42.047Z,6.58
2022-10-11T20:54:10.423Z,6.55
2022-10-11T20:56:38.313Z,6.52
2022-10-11T20:59:06.261Z,6.49
2022-10-11T21:01:39.820Z,6.48
2022-10-11T21:04:14.179Z,6.46
2022-10-11T21:06:41.150Z,6.41
2022-10-11T21:09:10.169Z,6.37
2022-10-11T21:11:38.454Z,6.35
2022-10-11T21:14:06.393Z,6.32
2022-10-11T21:16:34.158Z,6.33
2022-10-11T21:19:02.558Z,6.29
2022-10-11T21:21:31.130Z,6.24
2022-10-11T21:24:01.754Z,6.22
2022-10-11T21:26:30.983Z,6.19
2022-10-11T21:29:01.167Z,6.17
2022-10-11T21:31:33.523Z,6.15
2022-10-11T21:34:02.624Z,6.11
2022-10-11T21:36:30.995Z,6.09
2022-10-11T21:38:58.020Z,6.04
2022-10-11T21:41:31.312Z,6.02
2022-10-11T21:43:58.528Z,5.97
2022-10-11T21:49:19.746Z,5.90
2022-10-11T21:51:46.756Z,5.88
2022-10-11T21:54:14.318Z,5.84
2022-10-11T21:56:41.543Z,5.84
2022-10-11T21:59:12.170Z,5.82
2022-10-11T22:01:41.746Z,5.79
2022-10-11T22:04:10.859Z,5.75
2022-10-11T22:06:38.762Z,5.74
2022-10-11T22:09:07.685Z,5.72
2022-10-11T22:11:35.683Z,5.69
2022-10-11T22:14:03.337Z,5.66
2022-10-11T22:16:30.493Z,5.63
2022-10-11T22:18:57.584Z,5.62
2022-10-11T22:21:24.605Z,5.60
2022-10-11T22:23:54.145Z,5.58
2022-10-11T22:26:26.344Z,5.53
2022-10-11T22:28:53.468Z,5.49
2022-10-11T22:31:22.172Z,5.49
2022-10-11T22:33:54.580Z,5.47
2022-10-11T22:36:24.255Z,5.43
2022-10-11T22:38:53.228Z,5.41
2022-10-11T22:41:20.904Z,5.37
2022-10-11T22:43:48.228Z,5.33
2022-10-11T22:46:15.601Z,5.32
2022-10-11T22:48:42.803Z,5.28
2022-10-11T22:51:09.803Z,5.24
2022-10-11T22:53:38.628Z,5.20
2022-10-11T22:56:05.915Z,5.16
2022-10-11T22:58:32.877Z,5.12
2022-10-11T23:01:11.428Z,5.11
2022-10-11T23:03:38.566Z,5.08
2022-10-11T23:06:06.286Z,5.05
2022-10-11T23:08:33.402Z,5.02
2022-10-11T23:11:06.375Z,5.00
2022-10-11T23:13:35.004Z,4.96
2022-10-11T23:16:11.981Z,4.94
2022-10-11T23:18:39.438Z,4.90
2022-10-11T23:21:07.742Z,4.86
2022-10-11T23:23:35.174Z,4.86
2022-10-11T23:26:09.003Z,4.86
2022-10-11T23:28:37.174Z,4.86
2022-10-11T23:31:13.513Z,4.86
2022-10-11T23:33:41.084Z,4.86
2022-10-11T23:36:24.564Z,4.88
2022-10-11T23:38:59.065Z,4.86
2022-10-11T23:41:28.371Z,4.84
2022-10-11T23:43:56.097Z,4.81
2022-10-11T23:46:24.823Z,4.83
2022-10-11T23:48:51.812Z,4.83
2022-10-11T23:51:18.853Z,4.82
2022-10-11T23:53:45.879Z,4.82
2022-10-11T23:56:13.196Z,4.85
2022-10-11T23:58:40.364Z,4.86
